createdAt,value
2022-08-22T00:04:01.088Z,69
2022-08-22T00:09:02.755Z,69
2022-08-22T00:14:04.323Z,69
2022-08-22T00:19:06.106Z,70
2022-08-22T00:24:08.247Z,70
2022-08-22T00:29:09.955Z,69
2022-08-22T00:34:11.501Z,70
2022-08-22T00:39:13.239Z,69
2022-08-22T00:44:14.804Z,69
2022-08-22T00:49:16.670Z,70
2022-08-22T00:54:18.807Z,70
2022-08-22T00:59:23.021Z,70
2022-08-22T01:04:21.879Z,70
2022-08-22T01:09:23.329Z,70
2022-08-22T01:14:34.231Z,70
2022-08-22T01:19:26.884Z,70
2022-08-22T01:24:28.440Z,70
2022-08-22T01:29:30.466Z,70
2022-08-22T01:34:32.296Z,70
2022-08-22T01:39:33.972Z,71
2022-08-22T01:44:35.893Z,72
2022-08-22T01:49:37.858Z,72
2022-08-22T01:54:39.350Z,72
2022-08-22T01:59:42.471Z,72
2022-08-22T02:04:43.012Z,71
2022-08-22T02:09:44.451Z,72
2022-08-22T02:14:46.021Z,72
2022-08-22T02:19:47.818Z,72
2022-08-22T02:24:49.709Z,73
2022-08-22T02:29:51.518Z,73
2022-08-22T02:34:52.822Z,73
2022-08-22T02:39:54.136Z,74
2022-08-22T02:44:55.867Z,74
2022-08-22T02:49:57.064Z,73
2022-08-22T02:54:58.939Z,73
2022-08-22T03:00:01.068Z,73
2022-08-22T03:05:01.732Z,73
2022-08-22T03:10:03.892Z,73
2022-08-22T03:15:05.283Z,74
2022-08-22T03:20:06.977Z,74
2022-08-22T03:25:08.943Z,74
2022-08-22T03:30:10.703Z,74
2022-08-22T03:35:12.427Z,75
2022-08-22T03:40:13.807Z,75
2022-08-22T03:45:15.726Z,74
2022-08-22T03:50:17.033Z,75
2022-08-22T03:55:18.509Z,74
2022-08-22T04:00:20.155Z,74
2022-08-22T04:05:21.785Z,75
2022-08-22T04:10:23.941Z,75
2022-08-22T04:15:25.216Z,75
2022-08-22T04:20:26.701Z,75
2022-08-22T04:25:28.612Z,75
2022-08-22T04:30:30.591Z,76
2022-08-22T04:35:31.903Z,76
2022-08-22T04:40:33.366Z,76
2022-08-22T04:45:34.900Z,77
2022-08-22T04:50:38.967Z,76
2022-08-22T04:55:38.035Z,76
2022-08-22T05:00:40.130Z,76
2022-08-22T05:05:42.142Z,75
2022-08-22T05:10:43.646Z,76
2022-08-22T05:15:45.658Z,76
2022-08-22T05:20:54.089Z,75
2022-08-22T05:25:55.631Z,75
2022-08-22T05:30:57.345Z,76
2022-08-22T05:35:58.717Z,76
2022-08-22T05:41:01.116Z,78
2022-08-22T05:46:01.432Z,73
2022-08-22T05:51:03.588Z,69
2022-08-22T05:56:05.215Z,67
2022-08-22T06:01:07.281Z,66
2022-08-22T06:06:09.107Z,65
2022-08-22T06:11:10.512Z,64
2022-08-22T06:16:11.827Z,63
2022-08-22T06:21:13.093Z,63
2022-08-22T06:26:20.342Z,60
2022-08-22T06:31:16.656Z,59
2022-08-22T06:36:18.385Z,58
2022-08-22T06:41:19.797Z,58
2022-08-22T06:46:21.703Z,59
2022-08-22T06:51:24.113Z,58
2022-08-22T06:56:25.325Z,57
2022-08-22T07:01:27.541Z,56
2022-08-22T07:06:28.975Z,53
2022-08-22T07:11:30.885Z,49
2022-08-22T07:16:32.628Z,49
2022-08-22T07:21:34.256Z,50
2022-08-22T07:26:36.019Z,51
2022-08-22T07:31:37.378Z,50
2022-08-22T07:36:39.135Z,45
2022-08-22T07:41:40.573Z,45
2022-08-22T07:46:42.447Z,43
2022-08-22T07:51:44.486Z,42
2022-08-22T07:56:46.019Z,41
2022-08-22T08:01:47.847Z,38
2022-08-22T08:06:49.617Z,40
2022-08-22T08:11:51.471Z,39
2022-08-22T08:16:52.905Z,37
2022-08-22T08:21:54.509Z,38
2022-08-22T08:26:56.114Z,37
2022-08-22T08:31:57.491Z,37
2022-08-22T08:36:58.784Z,36
2022-08-22T08:42:01.089Z,36
2022-08-22T08:47:01.874Z,36
2022-08-22T08:52:03.137Z,35
2022-08-22T08:57:05.689Z,37
2022-08-22T09:02:06.619Z,37
2022-08-22T09:07:08.758Z,35
2022-08-22T09:12:10.235Z,33
2022-08-22T09:17:12.321Z,33
2022-08-22T09:22:14.973Z,32
2022-08-22T09:27:15.884Z,32
2022-08-22T09:32:19.039Z,32
2022-08-22T09:37:19.593Z,31
2022-08-22T09:42:21.007Z,30
2022-08-22T09:47:24.450Z,29
2022-08-22T09:52:30.049Z,30
2022-08-22T09:57:26.408Z,30
2022-08-22T10:02:28.064Z,28
2022-08-22T10:07:29.571Z,30
2022-08-22T10:12:35.246Z,30
2022-08-22T10:17:32.736Z,30
2022-08-22T10:22:34.404Z,31
2022-08-22T10:27:35.953Z,31
2022-08-22T10:32:37.802Z,30
2022-08-22T10:37:39.545Z,31
2022-08-22T10:42:40.981Z,30
2022-08-22T10:47:42.789Z,31
2022-08-22T10:52:44.650Z,30
2022-08-22T10:57:49.482Z,30
2022-08-22T11:02:48.203Z,29
2022-08-22T11:07:50.122Z,28
2022-08-22T11:12:51.727Z,28
2022-08-22T11:17:54.048Z,28
2022-08-22T11:22:55.592Z,26
2022-08-22T11:27:56.296Z,28
2022-08-22T11:32:57.982Z,29
2022-08-22T11:37:59.550Z,29
2022-08-22T11:43:03.018Z,30
2022-08-22T11:48:02.197Z,32
2022-08-22T11:53:04.522Z,32
2022-08-22T11:58:06.278Z,31
2022-08-22T12:03:08.302Z,32
2022-08-22T12:08:09.781Z,32
2022-08-22T12:13:11.410Z,33
2022-08-22T12:18:15.284Z,31
2022-08-22T12:58:25.339Z,32
2022-08-22T13:03:26.919Z,32
2022-08-22T13:08:28.770Z,32
2022-08-22T13:18:32.463Z,32
2022-08-22T13:23:34.343Z,33
2022-08-22T13:28:34.942Z,32
2022-08-22T13:38:38.014Z,33
2022-08-22T13:43:39.831Z,33
2022-08-22T13:53:49.785Z,32
2022-08-22T13:58:44.648Z,32
2022-08-22T14:03:45.938Z,32
2022-08-22T14:08:47.365Z,32
2022-08-22T14:13:48.651Z,32
2022-08-22T14:18:49.896Z,31
2022-08-22T14:23:51.875Z,30
2022-08-22T14:28:53.387Z,31
2022-08-22T14:33:55.468Z,32
2022-08-22T14:38:56.796Z,31
2022-08-22T14:43:58.911Z,32
2022-08-22T14:49:01.154Z,32
2022-08-22T14:54:04.210Z,32
2022-08-22T14:59:03.384Z,33
2022-08-22T15:04:04.643Z,32
2022-08-22T15:09:07.651Z,32
2022-08-22T15:14:07.231Z,32
2022-08-22T15:19:08.530Z,33
2022-08-22T15:24:10.208Z,34
2022-08-22T15:29:11.978Z,35
2022-08-22T15:34:13.359Z,35
2022-08-22T15:39:15.405Z,36
2022-08-22T15:44:31.191Z,36
2022-08-22T15:49:18.465Z,35
2022-08-22T15:54:24.581Z,35
2022-08-22T15:59:22.020Z,34
2022-08-22T16:04:23.721Z,35
2022-08-22T16:09:25.778Z,34
2022-08-22T16:14:27.238Z,35
2022-08-22T16:19:29.219Z,34
2022-08-22T16:24:31.035Z,33
2022-08-22T16:29:35.557Z,34
2022-08-22T16:34:34.831Z,34
2022-08-22T16:39:36.432Z,34
2022-08-22T16:44:38.121Z,33
2022-08-22T16:49:40.080Z,33
2022-08-22T16:54:41.760Z,33
2022-08-22T16:59:43.549Z,33
2022-08-22T17:04:44.789Z,33
2022-08-22T17:09:46.102Z,34
2022-08-22T17:14:48.087Z,35
2022-08-22T17:19:49.332Z,36
2022-08-22T17:24:50.608Z,36
2022-08-22T17:29:51.940Z,35
2022-08-22T17:34:53.875Z,36
2022-08-22T17:39:55.842Z,35
2022-08-22T17:44:56.974Z,36
2022-08-22T17:49:58.990Z,37
2022-08-22T17:55:01.080Z,37
2022-08-22T18:00:02.919Z,37
2022-08-22T18:05:04.648Z,38
2022-08-22T18:10:05.976Z,38
2022-08-22T18:15:07.639Z,39
2022-08-22T18:20:08.963Z,39
2022-08-22T18:25:10.830Z,39
2022-08-22T18:30:12.723Z,40
2022-08-22T18:35:14.795Z,40
2022-08-22T18:40:17.029Z,40
2022-08-22T18:45:18.341Z,40
2022-08-22T18:50:19.624Z,41
2022-08-22T18:55:21.041Z,41
2022-08-22T19:00:22.857Z,42
2022-08-22T19:05:24.597Z,43
2022-08-22T19:10:26.295Z,43
2022-08-22T19:15:27.968Z,44
2022-08-22T19:20:30.094Z,44
2022-08-22T19:25:31.441Z,45
2022-08-22T19:30:32.837Z,45
2022-08-22T19:35:34.387Z,46
2022-08-22T19:40:36.445Z,46
2022-08-22T19:45:38.489Z,47
2022-08-22T19:50:40.080Z,47
2022-08-22T19:55:41.247Z,48
2022-08-22T20:00:42.657Z,48
2022-08-22T20:05:43.952Z,49
2022-08-22T20:10:45.294Z,49
2022-08-22T20:15:50.804Z,50
2022-08-22T20:20:48.814Z,51
2022-08-22T20:25:50.014Z,51
2022-08-22T20:30:51.716Z,51
2022-08-22T20:35:52.992Z,51
2022-08-22T20:40:57.488Z,52
2022-08-22T20:45:56.838Z,52
2022-08-22T20:50:58.913Z,52
2022-08-22T20:56:01.161Z,53
2022-08-22T21:01:01.956Z,53
2022-08-22T21:06:03.748Z,54
2022-08-22T21:11:04.949Z,54
2022-08-22T21:16:06.572Z,54
2022-08-22T21:21:09.806Z,54
2022-08-22T21:26:09.853Z,54
2022-08-22T21:31:11.887Z,55
2022-08-22T21:36:13.752Z,55
2022-08-22T21:41:19.430Z,55
2022-08-22T21:46:17.897Z,55
2022-08-22T21:51:19.422Z,56
2022-08-22T21:56:20.776Z,57
2022-08-22T22:16:33.573Z,58
2022-08-22T22:21:35.396Z,57
2022-08-22T22:26:37.512Z,57
2022-08-22T22:31:38.858Z,58
2022-08-22T22:36:40.660Z,58
2022-08-22T22:41:42.377Z,59
2022-08-22T22:46:44.154Z,60
2022-08-22T22:51:45.398Z,60
2022-08-22T22:56:48.062Z,60
2022-08-22T23:01:49.185Z,61
2022-08-22T23:06:51.297Z,61
2022-08-22T23:11:52.692Z,61
2022-08-22T23:16:54.353Z,61
2022-08-22T23:21:56.194Z,61
2022-08-22T23:26:57.718Z,62
2022-08-22T23:31:59.632Z,62
2022-08-22T23:37:01.107Z,63
2022-08-22T23:42:02.311Z,63
2022-08-22T23:47:03.913Z,63
2022-08-22T23:52:05.429Z,62
2022-08-22T23:57:11.749Z,64
